Time;durP1;ratioP1;P1;durP2;ratioP2;P2;SDS_P1;SDS_P2;PMS_P1;PMS_P2;Temp;Humidity;BMP_temperature;BMP_pressure;BME280_temperature;BME280_humidity;BME280_pressure;Samples;Min_cycle;Max_cycle;Signal;HPM_P1;HPM_P2
2022/12/28 00:01:17;;;;;;;2.03;0.52;;;;;;;4.84;100.00;101467.41;6173879;28;20487;-73
2022/12/28 00:04:18;;;;;;;0.70;0.50;;;;;;;4.80;100.00;101468.34;6173463;28;20201;-73
2022/12/28 00:07:20;;;;;;;8.40;0.75;;;;;;;4.68;100.00;101452.94;6173741;28;20051;-73
2022/12/28 00:10:21;;;;;;;1.30;0.68;;;;;;;4.72;100.00;101448.53;6173726;28;20055;-73
2022/12/28 00:13:24;;;;;;;0.52;0.50;;;;;;;4.81;100.00;101440.53;6173450;28;20643;-73
2022/12/28 00:16:28;;;;;;;1.52;0.57;;;;;;;4.73;100.00;101437.25;6173713;28;20061;-73
2022/12/28 00:19:29;;;;;;;3.78;1.13;;;;;;;4.73;100.00;101430.28;6173404;28;20053;-73
2022/12/28 00:22:30;;;;;;;1.63;0.85;;;;;;;4.73;100.00;101429.44;6173220;28;20054;-73
2022/12/28 00:25:34;;;;;;;4.28;0.75;;;;;;;4.71;100.00;101426.84;6172713;28;20503;-73
2022/12/28 00:28:37;;;;;;;0.77;0.55;;;;;;;4.72;100.00;101418.13;6173663;28;20047;-73
2022/12/28 00:31:38;;;;;;;1.70;0.80;;;;;;;4.78;100.00;101418.03;6173164;28;20047;-73
2022/12/28 00:34:39;;;;;;;0.85;0.73;;;;;;;4.77;100.00;101403.31;6173388;28;20054;-73
2022/12/28 00:37:41;;;;;;;3.40;0.82;;;;;;;4.78;100.00;101393.75;6173467;28;20395;-73
2022/12/28 00:40:43;;;;;;;2.45;0.85;;;;;;;4.80;100.00;101400.63;6173312;28;20047;-73
2022/12/28 00:43:45;;;;;;;3.85;0.98;;;;;;;4.85;100.00;101387.53;6173337;28;20054;-73
2022/12/28 00:46:47;;;;;;;0.63;0.50;;;;;;;4.92;100.00;101385.69;6173126;28;20506;-74
2022/12/28 00:49:48;;;;;;;0.57;0.40;;;;;;;4.95;100.00;101376.06;6173320;28;20043;-73
2022/12/28 00:52:50;;;;;;;0.40;0.40;;;;;;;4.94;100.00;101381.28;6175119;28;20055;-73
2022/12/28 00:55:51;;;;;;;0.50;0.43;;;;;;;4.96;100.00;101369.09;6177525;28;20090;-73
2022/12/28 00:58:57;;;;;;;5.63;0.75;;;;;;;5.00;100.00;101363.81;6177878;28;20051;-73
2022/12/28 01:01:58;;;;;;;1.02;0.40;;;;;;;4.99;100.00;101363.81;6177943;28;20046;-73
2022/12/28 01:05:00;;;;;;;0.90;0.57;;;;;;;5.01;100.00;101362.91;6177343;28;20051;-73
2022/12/28 01:08:01;;;;;;;0.90;0.63;;;;;;;5.03;100.00;101349.84;6177724;28;20057;-73
2022/12/28 01:11:06;;;;;;;2.78;0.60;;;;;;;4.97;100.00;101330.00;6177512;28;20051;-73
2022/12/28 01:14:09;;;;;;;0.32;0.32;;;;;;;4.95;100.00;101338.72;6177063;28;20051;-73
2022/12/28 01:17:11;;;;;;;2.95;0.70;;;;;;;5.01;100.00;101323.84;6177401;28;20423;-73
2022/12/28 01:20:12;;;;;;;4.07;0.38;;;;;;;5.00;100.00;101332.53;6177101;28;20515;-73
2022/12/28 01:23:13;;;;;;;7.50;0.73;;;;;;;4.95;100.00;101329.19;6177252;28;20054;-73
2022/12/28 01:26:16;;;;;;;4.25;0.65;;;;;;;4.97;100.00;101311.75;6177107;28;20051;-73
2022/12/28 01:29:18;;;;;;;2.40;0.85;;;;;;;5.02;100.00;101296.03;6177220;28;20065;-73
2022/12/28 01:32:20;;;;;;;5.53;0.98;;;;;;;5.01;100.00;101296.94;6176857;28;20054;-73
2022/12/28 01:35:21;;;;;;;2.88;0.82;;;;;;;5.08;100.00;101299.34;6176722;28;20057;-73
2022/12/28 01:38:22;;;;;;;1.42;0.47;;;;;;;5.10;100.00;101283.72;6176843;28;20047;-73
2022/12/28 01:41:25;;;;;;;3.35;1.02;;;;;;;5.11;100.00;101294.97;6174183;28;20065;-73
2022/12/28 01:44:45;;;;;;;3.28;0.93;;;;;;;5.17;100.00;101277.44;6175113;28;20054;-73
2022/12/28 01:47:50;;;;;;;1.85;0.60;;;;;;;5.13;100.00;101268.00;6169972;28;20059;-73
2022/12/28 01:50:52;;;;;;;1.67;0.60;;;;;;;5.16;100.00;101275.75;6176373;28;20050;-73
2022/12/28 01:53:55;;;;;;;1.33;0.70;;;;;;;5.20;100.00;101274.78;6176407;28;20058;-73
2022/12/28 01:56:58;;;;;;;1.83;0.75;;;;;;;5.24;100.00;101267.75;6176620;28;20050;-73
2022/12/28 02:00:06;;;;;;;1.10;0.63;;;;;;;5.25;100.00;101274.69;6176105;28;20529;-73
2022/12/28 02:03:11;;;;;;;2.78;0.90;;;;;;;5.27;100.00;101268.56;6175749;28;20415;-73
2022/12/28 02:06:13;;;;;;;1.23;0.43;;;;;;;5.30;100.00;101268.47;6175543;28;20514;-73
2022/12/28 02:09:19;;;;;;;5.82;2.10;;;;;;;5.38;100.00;101260.47;6176440;28;20054;-73
2022/12/28 02:12:20;;;;;;;1.92;0.85;;;;;;;5.41;100.00;101257.81;6175851;28;20499;-73
2022/12/28 02:15:23;;;;;;;1.17;0.80;;;;;;;5.39;100.00;101240.47;6175361;28;20053;-73
2022/12/28 02:18:25;;;;;;;0.68;0.43;;;;;;;5.43;100.00;101239.53;6176059;28;20058;-73
2022/12/28 02:21:40;;;;;;;4.85;0.63;;;;;;;5.44;100.00;101244.69;6175821;28;20043;-73
2022/12/28 02:24:59;;;;;;;1.70;0.40;;;;;;;5.48;100.00;101235.91;6175713;28;20046;-73
2022/12/28 02:28:14;;;;;;;1.63;0.77;;;;;;;5.45;100.00;101225.56;6175892;28;20058;-73
2022/12/28 02:31:24;;;;;;;7.10;0.95;;;;;;;5.49;100.00;101229.78;6175351;28;20054;-73
2022/12/28 02:34:32;;;;;;;0.95;0.52;;;;;;;5.50;100.00;101213.28;6175643;28;20058;-73
2022/12/28 02:37:39;;;;;;;2.30;0.47;;;;;;;5.47;100.00;101196.84;6175771;28;20054;-73
2022/12/28 02:40:45;;;;;;;3.15;0.82;;;;;;;5.42;100.00;101183.09;6175369;28;20051;-73
2022/12/28 02:43:46;;;;;;;1.45;0.73;;;;;;;5.37;100.00;101184.94;6175434;28;20047;-73
2022/12/28 02:50:31;;;;;;;1.17;0.85;;;;;;;5.26;100.00;101156.53;6077657;29;20097;-73
2022/12/28 02:53:50;;;;;;;6.50;0.73;;;;;;;5.27;100.00;101145.25;6077582;29;20048;-73
2022/12/28 02:57:00;;;;;;;1.63;0.68;;;;;;;5.29;100.00;101143.44;6175340;28;20062;-74
2022/12/28 03:00:06;;;;;;;3.42;0.70;;;;;;;5.32;100.00;101133.81;6174846;28;20487;-73
2022/12/28 03:03:20;;;;;;;1.38;1.23;;;;;;;5.32;100.00;101114.72;6174834;28;20129;-74
2022/12/28 03:09:53;;;;;;;5.15;0.50;;;;;;;5.26;100.00;101125.25;6174611;28;20051;-73
2022/12/28 03:13:00;;;;;;;0.88;0.82;;;;;;;5.26;100.00;101123.50;6175424;28;20053;-73
2022/12/28 03:16:06;;;;;;;4.90;0.70;;;;;;;5.21;100.00;101101.94;6174308;28;20056;-73
2022/12/28 03:32:35;;;;;;;1.10;0.65;;;;;;;5.02;100.00;101080.72;6174280;28;20478;-73
2022/12/28 03:35:44;;;;;;;0.82;0.68;;;;;;;5.00;100.00;101064.28;6174334;28;20054;-73
2022/12/28 03:38:53;;;;;;;4.47;1.05;;;;;;;5.00;100.00;101055.63;6174362;28;20046;-74
2022/12/28 03:45:22;;;;;;;0.55;0.40;;;;;;;4.96;100.00;101028.78;6173884;28;20137;-73
2022/12/28 03:48:24;;;;;;;1.88;0.80;;;;;;;4.98;100.00;101026.97;6174316;28;20043;-73
2022/12/28 03:51:30;;;;;;;1.83;0.50;;;;;;;5.00;100.00;101021.75;6173773;28;20054;-74
2022/12/28 03:54:32;;;;;;;0.63;0.45;;;;;;;5.01;100.00;101013.88;6170980;28;20051;-73
2022/12/28 03:57:33;;;;;;;2.40;0.65;;;;;;;4.96;100.00;100994.94;6173593;28;20043;-72
2022/12/28 04:00:34;;;;;;;2.47;0.50;;;;;;;4.97;100.00;100986.22;6173710;28;20042;-73
2022/12/28 04:03:36;;;;;;;1.90;1.60;;;;;;;4.97;100.00;100978.41;6173777;28;20054;-73
2022/12/28 04:06:39;;;;;;;2.42;0.95;;;;;;;4.94;100.00;100980.22;6173554;28;20056;-72
2022/12/28 04:09:40;;;;;;;0.77;0.50;;;;;;;4.92;100.00;100971.63;6173682;28;20047;-72
2022/12/28 04:12:42;;;;;;;2.15;0.80;;;;;;;4.89;100.00;100972.53;6173485;28;20422;-72
2022/12/28 04:15:43;;;;;;;5.53;0.90;;;;;;;4.93;100.00;100970.72;6173606;28;20055;-72
2022/12/28 04:18:44;;;;;;;1.42;0.50;;;;;;;4.94;100.00;100962.00;6173763;28;20146;-71
2022/12/28 04:21:47;;;;;;;1.55;0.93;;;;;;;4.95;100.00;100964.59;6173699;28;20514;-72
2022/12/28 04:24:48;;;;;;;6.60;1.63;;;;;;;4.98;100.00;100963.63;6173438;28;20139;-72
2022/12/28 04:27:50;;;;;;;2.60;0.85;;;;;;;5.00;100.00;100962.69;6175816;28;20058;-72
2022/12/28 04:30:51;;;;;;;2.03;0.95;;;;;;;5.07;100.00;100955.56;6178360;28;20050;-72
2022/12/28 04:33:53;;;;;;;2.60;0.98;;;;;;;5.13;100.00;100951.94;6178135;28;20054;-72
2022/12/28 04:36:56;;;;;;;9.65;1.50;;;;;;;5.21;100.00;100942.16;6178357;28;20066;-72
2022/12/28 04:39:57;;;;;;;4.07;1.02;;;;;;;5.23;100.00;100936.03;6178135;28;20051;-72
2022/12/28 04:42:59;;;;;;;0.98;0.60;;;;;;;5.23;100.00;100919.53;6178103;28;20414;-72
2022/12/28 04:46:02;;;;;;;1.63;1.17;;;;;;;5.27;100.00;100924.63;6177819;28;20054;-71
2022/12/28 04:49:04;;;;;;;2.38;0.70;;;;;;;5.38;100.00;100916.47;6178055;28;20495;-72
2022/12/28 04:52:07;;;;;;;0.90;0.75;;;;;;;5.32;100.00;100904.50;6177726;28;20047;-72
2022/12/28 04:55:09;;;;;;;5.88;0.85;;;;;;;5.33;100.00;100881.88;6177851;28;20055;-72
2022/12/28 04:58:10;;;;;;;1.25;0.65;;;;;;;5.32;100.00;100886.25;6177750;28;20054;-72
2022/12/28 05:01:14;;;;;;;1.67;0.75;;;;;;;5.30;100.00;100879.38;6177964;28;20050;-72
2022/12/28 05:04:15;;;;;;;1.77;0.90;;;;;;;5.26;100.00;100883.81;6176888;28;20427;-72
2022/12/28 05:07:18;;;;;;;1.60;0.70;;;;;;;5.32;100.00;100877.59;6177952;28;20058;-72
2022/12/28 05:10:19;;;;;;;4.35;1.30;;;;;;;5.37;100.00;100865.25;6177561;28;20051;-72
2022/12/28 05:13:21;;;;;;;1.85;0.85;;;;;;;5.39;100.00;100876.47;6177184;28;20054;-72
2022/12/28 05:16:24;;;;;;;7.63;1.15;;;;;;;5.42;100.00;100868.59;6176826;28;20058;-72
2022/12/28 05:19:26;;;;;;;1.23;0.80;;;;;;;5.45;100.00;100863.28;6153208;29;20482;-72
2022/12/28 05:22:29;;;;;;;1.02;0.75;;;;;;;5.58;100.00;100863.75;6153361;28;20494;-72
2022/12/28 05:25:30;;;;;;;1.70;0.70;;;;;;;5.65;100.00;100864.41;6163225;28;20419;-72
2022/12/28 05:28:32;;;;;;;5.40;0.93;;;;;;;5.70;100.00;100859.91;6163914;28;20053;-72
2022/12/28 05:31:33;;;;;;;1.27;0.73;;;;;;;5.81;100.00;100863.03;6160225;28;20052;-73
2022/12/28 05:34:34;;;;;;;3.53;1.02;;;;;;;5.84;100.00;100852.50;6165618;28;20136;-73
2022/12/28 05:37:37;;;;;;;0.73;0.63;;;;;;;5.91;100.00;100855.78;6170836;28;20498;-73
2022/12/28 05:40:39;;;;;;;1.17;0.80;;;;;;;5.96;100.00;100851.31;6176920;28;20059;-73
2022/12/28 05:43:41;;;;;;;1.98;1.00;;;;;;;6.03;100.00;100858.84;6176797;28;20055;-73
2022/12/28 05:46:42;;;;;;;0.93;0.80;;;;;;;6.11;100.00;100858.59;6176719;28;20055;-73
2022/12/28 05:49:43;;;;;;;0.85;0.68;;;;;;;6.02;100.00;100853.69;6176639;28;20058;-72
2022/12/28 05:52:46;;;;;;;2.15;1.20;;;;;;;5.89;100.00;100853.19;6176363;28;20051;-73
2022/12/28 05:55:47;;;;;;;1.40;0.82;;;;;;;5.79;100.00;100844.81;6176347;28;20086;-73
2022/12/28 05:58:54;;;;;;;4.30;1.02;;;;;;;5.72;100.00;100837.25;6176360;28;20057;-72
2022/12/28 06:01:55;;;;;;;1.20;0.88;;;;;;;5.75;100.00;100837.16;6176485;28;20047;-73
2022/12/28 06:04:56;;;;;;;1.58;0.75;;;;;;;5.72;100.00;100826.81;6175895;28;20422;-72
2022/12/28 06:07:59;;;;;;;2.50;1.25;;;;;;;5.66;100.00;100824.41;6176423;28;20051;-72
2022/12/28 06:11:01;;;;;;;1.67;1.10;;;;;;;5.65;100.00;100823.56;6175481;28;20046;-72
2022/12/28 06:14:04;;;;;;;3.47;0.80;;;;;;;5.66;100.00;100814.84;6161727;28;20065;-72
2022/12/28 06:17:06;;;;;;;0.77;0.70;;;;;;;5.62;100.00;100826.25;6161432;28;20079;-72
2022/12/28 06:20:08;;;;;;;1.15;0.90;;;;;;;5.62;100.00;100818.44;6163319;28;20487;-72
2022/12/28 06:23:10;;;;;;;0.73;0.73;;;;;;;5.59;100.00;100808.97;6161520;28;20058;-72
2022/12/28 06:26:14;;;;;;;0.98;0.73;;;;;;;5.59;100.00;100808.97;6162533;28;20050;-72
2022/12/28 06:29:15;;;;;;;1.75;0.80;;;;;;;5.56;100.00;100808.22;6168257;28;20395;-72
2022/12/28 06:32:17;;;;;;;1.52;0.90;;;;;;;5.61;100.00;100808.91;6175526;28;20046;-72
2022/12/28 06:35:18;;;;;;;1.02;0.73;;;;;;;5.60;100.00;100807.22;6175563;28;20050;-72
2022/12/28 06:38:21;;;;;;;1.17;0.88;;;;;;;5.58;100.00;100801.19;6175616;28;20109;-72
2022/12/28 06:41:23;;;;;;;2.35;1.70;;;;;;;5.57;100.00;100807.31;6175579;28;20054;-72
2022/12/28 06:44:24;;;;;;;1.63;0.98;;;;;;;5.64;100.00;100813.19;6175140;28;20058;-72
2022/12/28 06:47:26;;;;;;;1.45;0.80;;;;;;;5.68;100.00;100809.56;6175351;28;20404;-72
2022/12/28 06:50:27;;;;;;;2.50;1.10;;;;;;;5.71;100.00;100809.47;6174440;28;20046;-72
2022/12/28 06:53:32;;;;;;;1.52;0.80;;;;;;;5.70;100.00;100794.72;6175134;28;20062;-73
2022/12/28 06:56:35;;;;;;;2.03;1.00;;;;;;;5.68;100.00;100800.00;6175136;28;20057;-73
2022/12/28 06:59:36;;;;;;;1.75;1.00;;;;;;;5.68;100.00;100799.13;6174923;28;20057;-73
2022/12/28 07:02:38;;;;;;;3.40;1.52;;;;;;;5.71;100.00;100799.03;6174994;28;20046;-73
2022/12/28 07:05:39;;;;;;;1.25;1.00;;;;;;;5.77;100.00;100798.84;6174723;28;20053;-73
2022/12/28 07:08:42;;;;;;;1.00;0.88;;;;;;;5.75;100.00;100793.66;6175112;28;20069;-73
2022/12/28 07:11:44;;;;;;;1.75;1.13;;;;;;;5.75;100.00;100795.44;6174592;28;20046;-73
2022/12/28 07:14:45;;;;;;;2.17;1.20;;;;;;;5.76;100.00;100807.56;6174664;28;20055;-73
2022/12/28 07:17:46;;;;;;;1.65;1.17;;;;;;;5.76;100.00;100797.13;6174616;28;20491;-73
2022/12/28 07:20:47;;;;;;;3.85;1.27;;;;;;;5.83;100.00;100777.78;6174521;28;20058;-73
2022/12/28 07:23:52;;;;;;;2.60;1.02;;;;;;;5.87;100.00;100784.59;6173016;28;20043;-73
2022/12/28 07:26:53;;;;;;;1.75;0.88;;;;;;;5.93;100.00;100794.00;6174586;28;20051;-72
2022/12/28 07:29:54;;;;;;;2.65;1.23;;;;;;;5.96;100.00;100779.13;6174476;28;20062;-72
2022/12/28 07:32:55;;;;;;;1.63;1.15;;;;;;;5.97;100.00;100786.03;6174098;28;20050;-73
2022/12/28 07:35:58;;;;;;;2.40;1.15;;;;;;;6.01;100.00;100792.00;6174330;28;20054;-73
2022/12/28 07:39:03;;;;;;;1.67;1.13;;;;;;;6.00;100.00;100780.72;6174475;28;20055;-72
2022/12/28 07:42:07;;;;;;;4.22;1.42;;;;;;;6.01;100.00;100792.00;6174187;28;20561;-72
2022/12/28 07:45:11;;;;;;;1.45;1.27;;;;;;;6.07;100.00;100786.56;6174005;28;20051;-73
2022/12/28 07:48:12;;;;;;;3.03;1.38;;;;;;;6.13;100.00;100785.50;6174236;28;20047;-72
2022/12/28 07:51:16;;;;;;;1.92;1.23;;;;;;;6.18;100.00;100789.69;6173779;28;20058;-73
2022/12/28 07:54:18;;;;;;;6.28;1.00;;;;;;;6.26;100.00;100792.84;6173867;28;20050;-73
2022/12/28 07:57:20;;;;;;;2.05;1.17;;;;;;;6.27;100.00;100789.34;6173868;28;20055;-73
2022/12/28 08:00:21;;;;;;;2.08;0.93;;;;;;;6.24;100.00;100781.63;6173955;28;20495;-73
2022/12/28 08:03:22;;;;;;;4.43;1.60;;;;;;;6.27;100.00;100781.53;6172850;28;20051;-73
2022/12/28 08:06:24;;;;;;;7.28;1.08;;;;;;;6.31;100.00;100780.53;6173686;28;20053;-73
2022/12/28 08:09:27;;;;;;;2.40;1.48;;;;;;;6.40;100.00;100781.91;6173031;28;20058;-73
2022/12/28 08:12:28;;;;;;;1.35;1.25;;;;;;;6.45;100.00;100784.38;6187916;28;20049;-73
2022/12/28 08:15:30;;;;;;;2.33;1.42;;;;;;;6.47;100.00;100790.41;6182747;28;20046;-73
2022/12/28 08:18:31;;;;;;;1.38;1.20;;;;;;;6.50;100.00;100775.50;6196062;28;20539;-73
2022/12/28 08:21:36;;;;;;;2.03;1.80;;;;;;;6.58;100.00;100785.63;6188665;28;20046;-73
2022/12/28 08:24:38;;;;;;;1.20;1.00;;;;;;;6.59;100.00;100780.38;6197343;28;20498;-73
2022/12/28 08:27:40;;;;;;;2.20;1.50;;;;;;;6.61;100.00;100780.31;6197844;28;20054;-73
2022/12/28 08:30:41;;;;;;;2.80;1.27;;;;;;;6.64;100.00;100779.34;6196905;28;20057;-73
2022/12/28 08:33:43;;;;;;;2.60;1.05;;;;;;;6.68;100.00;100778.34;6186645;28;20046;-73
2022/12/28 08:36:44;;;;;;;1.05;0.95;;;;;;;6.70;100.00;100774.75;6197652;28;20046;-72
2022/12/28 08:39:47;;;;;;;3.58;1.52;;;;;;;6.70;100.00;100781.72;6197518;28;20051;-73
2022/12/28 08:42:48;;;;;;;1.45;1.20;;;;;;;6.71;100.00;100779.06;6197441;28;20058;-73
2022/12/28 08:45:57;;;;;;;1.98;1.23;;;;;;;6.71;100.00;100778.22;6197473;28;20050;-73
2022/12/28 08:48:59;;;;;;;3.17;1.88;;;;;;;6.76;100.00;100776.28;6197446;28;20073;-73
2022/12/28 08:52:01;;;;;;;1.80;1.08;;;;;;;6.80;100.00;100780.47;6197327;28;20073;-72
2022/12/28 08:55:05;;;;;;;2.42;1.20;;;;;;;6.86;100.00;100791.56;6197013;28;20077;-71
2022/12/28 08:58:06;;;;;;;1.48;1.23;;;;;;;6.97;100.00;100780.72;6196876;28;20057;-73
2022/12/28 09:01:09;;;;;;;1.08;0.98;;;;;;;6.98;100.00;100784.16;6183297;28;20046;-72
2022/12/28 09:04:13;;;;;;;1.48;1.10;;;;;;;6.98;100.00;100792.00;6182031;28;20410;-72
2022/12/28 09:07:15;;;;;;;2.17;1.23;;;;;;;6.97;100.00;100791.16;6187236;28;20715;-72
2022/12/28 09:10:17;;;;;;;1.10;1.00;;;;;;;7.03;100.00;100796.13;6181867;28;20047;-72
2022/12/28 09:13:19;;;;;;;2.20;1.40;;;;;;;7.03;100.00;100797.91;6195639;28;20073;-72
2022/12/28 09:16:24;;;;;;;1.42;1.33;;;;;;;7.01;100.00;100802.34;6196072;28;20418;-72
2022/12/28 09:19:25;;;;;;;1.33;1.20;;;;;;;7.11;100.00;100795.84;6191017;28;20039;-72
2022/12/28 09:22:26;;;;;;;1.25;0.98;;;;;;;7.16;100.00;100798.28;6200317;28;20047;-72
2022/12/28 09:25:29;;;;;;;0.60;0.60;;;;;;;7.20;100.00;100805.09;6200139;28;20050;-74
2022/12/28 09:28:31;;;;;;;1.40;1.23;;;;;;;7.18;100.00;100794.72;6201120;28;20057;-73
2022/12/28 09:31:35;;;;;;;1.23;1.13;;;;;;;7.26;100.00;100791.78;6170410;28;20047;-73
2022/12/28 09:34:37;;;;;;;1.20;0.90;;;;;;;7.22;100.00;100779.75;6170392;28;20050;-73
2022/12/28 09:37:38;;;;;;;0.80;0.80;;;;;;;7.31;100.00;100785.50;6173096;28;20039;-72
2022/12/28 09:40:41;;;;;;;1.63;1.45;;;;;;;7.38;100.00;100786.94;6181816;28;20046;-71
2022/12/28 09:43:43;;;;;;;0.80;0.80;;;;;;;7.30;100.00;100793.38;6208191;28;20057;-74
2022/12/28 09:46:49;;;;;;;1.25;1.05;;;;;;;7.28;100.00;100793.44;6210434;28;20073;-73
2022/12/28 09:50:03;;;;;;;2.03;0.77;;;;;;;7.32;100.00;100786.34;6220288;28;20042;-74
2022/12/28 09:53:25;;;;;;;1.20;1.10;;;;;;;7.36;100.00;100788.78;6213117;28;20490;-73
2022/12/28 09:56:33;;;;;;;0.40;0.40;;;;;;;7.45;100.00;100778.84;6216571;28;20165;-74
2022/12/28 09:59:36;;;;;;;0.80;0.80;;;;;;;7.47;100.00;100779.66;6216618;28;20565;-73
2022/12/28 10:02:39;;;;;;;0.80;0.80;;;;;;;7.46;100.00;100776.19;6211904;28;20042;-74
2022/12/28 10:05:41;;;;;;;1.25;0.70;;;;;;;7.47;100.00;100763.97;6194409;28;20053;-74
2022/12/28 10:08:46;;;;;;;0.75;0.70;;;;;;;7.57;100.00;100770.53;6198914;28;20050;-74
2022/12/28 10:11:49;;;;;;;1.38;1.05;;;;;;;7.62;100.00;100771.19;6197579;28;20058;-74
2022/12/28 10:14:52;;;;;;;1.77;1.08;;;;;;;7.69;100.00;100763.94;6201178;28;20050;-74
2022/12/28 10:17:54;;;;;;;1.30;0.98;;;;;;;7.70;100.00;100761.25;6207239;28;20426;-74
2022/12/28 10:20:56;;;;;;;1.48;0.70;;;;;;;7.73;100.00;100760.28;6204129;28;20071;-75
2022/12/28 10:23:58;;;;;;;0.75;0.75;;;;;;;7.80;100.00;100761.72;6202100;28;20042;-74
2022/12/28 10:27:04;;;;;;;1.17;0.90;;;;;;;7.79;100.00;100760.88;6211627;28;20061;-74
2022/12/28 10:30:14;;;;;;;1.00;0.90;;;;;;;7.83;100.00;100757.22;6218943;28;20050;-74
2022/12/28 10:33:17;;;;;;;2.45;1.02;;;;;;;7.88;100.00;100759.66;6196490;28;20046;-80
2022/12/28 10:36:19;;;;;;;1.60;1.10;;;;;;;7.95;100.00;100755.00;6198753;28;20053;-77
2022/12/28 10:39:24;;;;;;;5.97;1.10;;;;;;;7.94;100.00;100754.16;6203993;28;20042;-73
2022/12/28 10:42:31;;;;;;;1.15;0.90;;;;;;;7.96;100.00;100754.94;6206040;28;20046;-74
2022/12/28 10:45:36;;;;;;;1.35;0.90;;;;;;;7.94;100.00;100750.69;6208054;28;20050;-74
2022/12/28 10:48:39;;;;;;;3.45;0.88;;;;;;;7.84;100.00;100743.22;6222587;28;20058;-74
2022/12/28 10:51:58;;;;;;;0.82;0.70;;;;;;;7.84;100.00;100748.44;6222316;28;20046;-74
2022/12/28 10:55:00;;;;;;;0.60;0.60;;;;;;;7.91;100.00;100743.84;6222374;28;20513;-74
2022/12/28 10:58:19;;;;;;;1.10;0.90;;;;;;;7.99;100.00;100743.47;6223115;28;20054;-74
2022/12/28 11:01:26;;;;;;;1.30;1.05;;;;;;;8.03;100.00;100752.91;6223608;28;20053;-74
2022/12/28 11:04:27;;;;;;;1.00;0.90;;;;;;;8.01;100.00;100744.28;6218642;28;20042;-73
2022/12/28 11:07:32;;;;;;;1.20;1.08;;;;;;;7.92;100.00;100740.28;6206152;28;20510;-74
2022/12/28 11:10:34;;;;;;;1.38;1.00;;;;;;;7.80;100.00;100722.47;6209445;28;20058;-74
2022/12/28 11:13:38;;;;;;;0.75;0.75;;;;;;;7.80;100.00;100728.56;6214485;28;20482;-74
2022/12/28 11:16:41;;;;;;;1.35;1.02;;;;;;;7.79;100.00;100726.88;6223182;28;20050;-74
2022/12/28 11:19:42;;;;;;;1.23;1.00;;;;;;;7.84;100.00;100721.44;6222098;28;20489;-74
2022/12/28 11:22:45;;;;;;;2.22;1.27;;;;;;;7.88;100.00;100733.47;6215284;28;20395;-74
2022/12/28 11:25:47;;;;;;;1.25;0.80;;;;;;;7.91;100.00;100728.13;6222871;28;20418;-74
2022/12/28 11:28:51;;;;;;;1.38;1.00;;;;;;;7.96;100.00;100728.78;6223045;28;20049;-74
2022/12/28 11:31:58;;;;;;;1.20;1.08;;;;;;;7.98;100.00;100721.69;6222794;28;20054;-73
2022/12/28 11:35:00;;;;;;;1.10;1.00;;;;;;;8.02;100.00;100710.19;6222620;28;20504;-74
2022/12/28 11:38:03;;;;;;;1.30;0.98;;;;;;;8.07;100.00;100721.31;6220812;28;20508;-76
2022/12/28 11:41:05;;;;;;;6.07;1.23;;;;;;;8.11;100.00;100719.41;6195487;28;20043;-76
2022/12/28 11:44:20;;;;;;;1.50;1.20;;;;;;;8.08;100.00;100711.69;6196882;28;20076;-74
2022/12/28 11:47:31;;;;;;;2.03;0.90;;;;;;;8.07;100.00;100704.75;6196126;28;20054;-74
2022/12/28 11:50:41;;;;;;;1.67;0.90;;;;;;;8.09;100.00;100705.56;6196001;28;20112;-73
2022/12/28 11:53:54;;;;;;;1.08;1.00;;;;;;;8.04;100.00;100697.91;6197033;28;20525;-74
2022/12/28 11:56:59;;;;;;;1.35;0.95;;;;;;;8.03;100.00;100698.78;6197624;28;20470;-74
2022/12/28 12:00:34;;;;;;;1.83;1.60;;;;;;;8.03;100.00;100693.56;6197570;28;20058;-74
2022/12/28 12:04:18;;;;;;;1.73;1.10;;;;;;;7.92;100.00;100687.97;6197826;28;20403;-74
2022/12/28 12:07:23;;;;;;;2.38;1.17;;;;;;;7.93;100.00;100688.81;6197848;28;20046;-74
2022/12/28 12:10:32;;;;;;;2.28;1.02;;;;;;;7.95;100.00;100686.97;6197584;28;20521;-74
2022/12/28 12:13:42;;;;;;;1.25;1.00;;;;;;;7.97;100.00;100683.38;6197604;28;20073;-74
2022/12/28 12:16:49;;;;;;;4.60;1.60;;;;;;;7.97;100.00;100678.13;6197802;28;20133;-74
2022/12/28 12:19:57;;;;;;;2.10;1.30;;;;;;;7.98;100.00;100687.69;6197550;28;20050;-75
2022/12/28 12:23:05;;;;;;;1.23;1.00;;;;;;;8.03;100.00;100677.84;6197765;28;20077;-74
2022/12/28 12:26:20;;;;;;;1.13;1.00;;;;;;;8.09;100.00;100677.63;6197357;28;20418;-74
2022/12/28 12:29:28;;;;;;;1.10;0.88;;;;;;;8.07;100.00;100666.34;6197846;28;20058;-75
2022/12/28 12:32:38;;;;;;;3.15;1.30;;;;;;;8.07;100.00;100668.13;6197418;28;20047;-74
2022/12/28 12:36:02;;;;;;;1.25;0.85;;;;;;;8.01;100.00;100664.00;6197433;28;20051;-74
2022/12/28 12:39:18;;;;;;;1.10;0.85;;;;;;;8.01;100.00;100647.47;6198029;28;20054;-74
2022/12/28 12:42:29;;;;;;;0.90;0.80;;;;;;;8.03;100.00;100656.06;6197291;28;20046;-75
2022/12/28 12:45:43;;;;;;;4.10;0.65;;;;;;;8.01;100.00;100648.31;6197615;28;20053;-75
2022/12/28 12:49:04;;;;;;;1.50;1.10;;;;;;;8.03;100.00;100646.47;6199488;28;20055;-75
2022/12/28 12:52:24;;;;;;;0.90;0.80;;;;;;;8.12;100.00;100642.59;6202152;28;20042;-74
2022/12/28 12:55:41;;;;;;;1.13;1.00;;;;;;;8.20;100.00;100632.63;6201988;28;20042;-75
2022/12/28 12:58:57;;;;;;;1.23;1.00;;;;;;;8.27;100.00;100643.69;6202040;28;20046;-74
2022/12/28 13:02:12;;;;;;;1.42;1.05;;;;;;;8.21;100.00;100631.69;6202050;28;20061;-75
2022/12/28 13:05:18;;;;;;;1.50;1.00;;;;;;;8.17;100.00;100638.00;6201776;28;20517;-76
2022/12/28 13:08:25;;;;;;;3.10;1.52;;;;;;;8.14;100.00;100648.63;6202190;28;20058;-75
2022/12/28 13:11:28;;;;;;;1.10;1.00;;;;;;;8.11;100.00;100636.50;6201581;28;20061;-75
2022/12/28 13:14:30;;;;;;;2.28;1.25;;;;;;;8.09;100.00;100629.66;6202560;28;20498;-74
2022/12/28 13:17:31;;;;;;;1.95;1.30;;;;;;;8.07;100.00;100636.72;6201666;28;20050;-75
2022/12/28 13:20:33;;;;;;;1.63;1.05;;;;;;;8.07;100.00;100618.38;6201486;28;20057;-75
2022/12/28 13:23:44;;;;;;;1.88;1.55;;;;;;;8.07;100.00;100618.38;6201537;28;20058;-75
2022/12/28 13:26:45;;;;;;;1.40;1.30;;;;;;;8.08;100.00;100618.34;6201336;28;20481;-75
2022/12/28 13:29:52;;;;;;;1.77;1.13;;;;;;;8.12;100.00;100614.63;6201244;28;20058;-75
2022/12/28 13:32:55;;;;;;;1.92;1.52;;;;;;;8.08;100.00;100620.06;6201160;28;20046;-76
2022/12/28 13:36:12;;;;;;;7.32;2.13;;;;;;;8.12;100.00;100608.56;6201155;28;20054;-74
2022/12/28 13:39:17;;;;;;;2.03;1.80;;;;;;;8.09;100.00;100609.56;6201038;28;20050;-75
2022/12/28 13:42:26;;;;;;;4.10;2.03;;;;;;;8.08;100.00;100607.88;6201275;28;20046;-74
2022/12/28 13:45:28;;;;;;;4.75;2.10;;;;;;;8.09;100.00;100608.72;6200726;28;20501;-75
2022/12/28 13:48:31;;;;;;;2.20;1.80;;;;;;;8.07;100.00;100607.91;6199996;28;20061;-75
2022/12/28 13:51:36;;;;;;;3.35;2.15;;;;;;;8.05;100.00;100613.22;6200548;28;20057;-74
2022/12/28 13:54:40;;;;;;;2.78;2.30;;;;;;;8.07;100.00;100598.28;6195576;28;20049;-75
2022/12/28 13:57:44;;;;;;;2.90;2.08;;;;;;;8.10;100.00;100595.56;6192101;28;20047;-75
2022/12/28 14:00:47;;;;;;;3.92;2.40;;;;;;;8.15;100.00;100600.56;6191946;28;20059;-75
2022/12/28 14:03:49;;;;;;;3.22;1.83;;;;;;;8.16;100.00;100591.78;6195232;28;20517;-76
2022/12/28 14:06:51;;;;;;;3.90;2.20;;;;;;;8.18;100.00;100596.97;6207385;28;20046;-75
2022/12/28 14:09:55;;;;;;;1.90;1.70;;;;;;;8.25;100.00;100593.16;6217395;28;20090;-75
2022/12/28 14:12:57;;;;;;;4.07;1.90;;;;;;;8.28;100.00;100593.00;6223667;28;20050;-75
2022/12/28 14:15:59;;;;;;;4.15;1.55;;;;;;;8.31;100.00;100598.09;6222767;28;20050;-75
2022/12/28 14:19:03;;;;;;;2.55;1.60;;;;;;;8.38;100.00;100591.69;6213953;28;20050;-78
2022/12/28 14:22:24;;;;;;;4.10;1.90;;;;;;;8.37;100.00;100590.00;6196474;28;20418;-75
2022/12/28 14:25:27;;;;;;;2.40;1.60;;;;;;;8.41;100.00;100588.94;6199765;28;20104;-75
2022/12/28 14:28:34;;;;;;;2.10;1.75;;;;;;;8.42;100.00;100582.78;6200276;28;20054;-74
2022/12/28 14:31:35;;;;;;;2.03;1.85;;;;;;;8.44;100.00;100580.91;6197633;28;20042;-76
2022/12/28 14:34:37;;;;;;;4.25;1.33;;;;;;;8.43;100.00;100584.47;6199139;28;20038;-74
2022/12/28 14:37:40;;;;;;;4.35;1.55;;;;;;;8.51;100.00;100589.34;6199721;28;20098;-74
2022/12/28 14:40:43;;;;;;;1.70;1.60;;;;;;;8.45;100.00;100576.53;6199618;28;20077;-75